Time;durP1;ratioP1;P1;durP2;ratioP2;P2;SDS_P1;SDS_P2;PMS_P1;PMS_P2;Temp;Humidity;BMP_temperature;BMP_pressure;BME280_temperature;BME280_humidity;BME280_pressure;Samples;Min_cycle;Max_cycle;Signal;HPM_P1;HPM_P2
2021/10/22 00:00:31;;;;;;;8.38;1.23;;;;;;;;;;6011600;23;20030;-56
2021/10/22 00:02:57;;;;;;;7.00;1.67;;;;;;;;;;6016293;23;20026;-56
2021/10/22 00:05:24;;;;;;;7.72;1.50;;;;;;;;;;5966898;23;20041;-56
2021/10/22 00:07:50;;;;;;;5.00;1.17;;;;;;;;;;5967350;24;20050;-57
2021/10/22 00:10:17;;;;;;;7.78;1.00;;;;;;;;;;5968173;24;20022;-57
2021/10/22 00:12:45;;;;;;;5.47;0.93;;;;;;;;;;5965038;24;20052;-57
2021/10/22 00:15:11;;;;;;;8.07;1.30;;;;;;;;;;5968574;23;20030;-54
2021/10/22 00:17:38;;;;;;;10.10;1.13;;;;;;;;;;5968503;23;20038;-57
2021/10/22 00:20:05;;;;;;;7.10;0.70;;;;;;;;;;5972791;23;20479;-57
2021/10/22 00:22:32;;;;;;;7.15;0.85;;;;;;;;;;5980514;23;20026;-56
2021/10/22 00:24:58;;;;;;;7.43;0.82;;;;;;;;;;5970686;24;20026;-57
2021/10/22 00:27:25;;;;;;;5.32;1.05;;;;;;;;;;5966201;24;20153;-56
2021/10/22 00:29:53;;;;;;;6.03;0.98;;;;;;;;;;5990642;24;20038;-56
2021/10/22 00:32:19;;;;;;;7.87;0.97;;;;;;;;;;5965901;24;20050;-56
2021/10/22 00:34:46;;;;;;;4.80;0.90;;;;;;;;;;5968438;24;20033;-56
2021/10/22 00:37:13;;;;;;;6.20;1.00;;;;;;;;;;5990383;23;20026;-57
2021/10/22 00:39:39;;;;;;;11.77;1.00;;;;;;;;;;5992996;23;20034;-54
2021/10/22 00:42:07;;;;;;;3.95;1.00;;;;;;;;;;5988937;23;20041;-57
2021/10/22 00:44:33;;;;;;;3.90;0.83;;;;;;;;;;5965533;24;20037;-56
2021/10/22 00:47:01;;;;;;;2.78;0.80;;;;;;;;;;5964435;24;20109;-57
2021/10/22 00:49:28;;;;;;;8.32;1.10;;;;;;;;;;5968517;24;20022;-57
2021/10/22 00:51:54;;;;;;;5.85;0.80;;;;;;;;;;5970015;24;20026;-57
2021/10/22 00:54:21;;;;;;;4.25;0.90;;;;;;;;;;5961645;24;20034;-57
2021/10/22 00:56:48;;;;;;;10.40;1.20;;;;;;;;;;5940061;24;20046;-57
2021/10/22 00:59:15;;;;;;;6.55;0.90;;;;;;;;;;5985451;24;20048;-53
2021/10/22 01:01:42;;;;;;;10.25;0.90;;;;;;;;;;5966626;23;20124;-56
2021/10/22 01:04:10;;;;;;;7.47;1.00;;;;;;;;;;5964062;23;20045;-57
2021/10/22 01:06:37;;;;;;;5.17;1.03;;;;;;;;;;6015381;23;20040;-55
2021/10/22 01:09:05;;;;;;;11.20;1.38;;;;;;;;;;5999659;23;20069;-57
2021/10/22 01:11:31;;;;;;;13.13;1.30;;;;;;;;;;5993700;23;20034;-57
2021/10/22 01:13:58;;;;;;;7.20;1.00;;;;;;;;;;5974527;23;20065;-57
2021/10/22 01:16:25;;;;;;;10.52;1.30;;;;;;;;;;5994433;23;20054;-58
2021/10/22 01:18:52;;;;;;;10.65;1.25;;;;;;;;;;5989718;23;20038;-56
2021/10/22 01:21:20;;;;;;;6.00;0.70;;;;;;;;;;5968847;24;20026;-56
2021/10/22 01:23:47;;;;;;;13.45;1.08;;;;;;;;;;5968795;24;20026;-55
2021/10/22 01:26:13;;;;;;;4.97;0.88;;;;;;;;;;5997947;23;20045;-56
2021/10/22 01:28:40;;;;;;;4.82;0.90;;;;;;;;;;6012349;23;20041;-58
2021/10/22 01:31:07;;;;;;;7.20;1.08;;;;;;;;;;5967492;24;20034;-56
2021/10/22 01:33:33;;;;;;;7.05;1.17;;;;;;;;;;5993464;23;20025;-56
2021/10/22 01:36:00;;;;;;;6.18;1.17;;;;;;;;;;5965635;23;20129;-55
2021/10/22 01:38:30;;;;;;;12.02;0.90;;;;;;;;;;5966596;24;20041;-58
2021/10/22 01:40:58;;;;;;;6.82;1.35;;;;;;;;;;5949571;24;20041;-58
2021/10/22 01:43:25;;;;;;;4.57;1.13;;;;;;;;;;5953526;24;20042;-58
2021/10/22 01:45:53;;;;;;;9.27;1.23;;;;;;;;;;5963050;24;20034;-57
2021/10/22 01:48:22;;;;;;;4.78;1.00;;;;;;;;;;5956924;24;20582;-58
2021/10/22 01:50:49;;;;;;;7.65;0.95;;;;;;;;;;5967846;24;20041;-57
2021/10/22 01:53:16;;;;;;;5.32;0.90;;;;;;;;;;5970664;23;20038;-55
2021/10/22 01:55:44;;;;;;;5.22;0.90;;;;;;;;;;5980954;23;20034;-57
2021/10/22 01:58:11;;;;;;;7.47;1.30;;;;;;;;;;5993165;23;20041;-57
2021/10/22 02:00:38;;;;;;;4.97;1.55;;;;;;;;;;5990452;23;20049;-58
2021/10/22 02:03:05;;;;;;;5.35;1.10;;;;;;;;;;5993289;23;20120;-56
2021/10/22 02:05:34;;;;;;;7.30;1.30;;;;;;;;;;5984731;23;20088;-57
2021/10/22 02:08:00;;;;;;;;;;;;;;;;;;5967142;24;20030;-57
2021/10/22 02:10:26;;;;;;;7.43;0.93;;;;;;;;;;5987943;23;20587;-58
2021/10/22 02:12:54;;;;;;;8.48;0.85;;;;;;;;;;5970231;23;20045;-57
2021/10/22 02:15:23;;;;;;;6.70;1.00;;;;;;;;;;5967936;23;20041;-58
2021/10/22 02:17:49;;;;;;;;;;;;;;;;;;5939250;24;20063;-56
2021/10/22 02:20:16;;;;;;;4.78;0.90;;;;;;;;;;5961337;24;19921;-58
2021/10/22 02:22:42;;;;;;;7.13;1.10;;;;;;;;;;5991150;23;20088;-57
2021/10/22 02:25:09;;;;;;;5.55;0.95;;;;;;;;;;6017117;23;20046;-57
2021/10/22 02:27:35;;;;;;;5.97;0.88;;;;;;;;;;5982423;23;20460;-54
2021/10/22 02:30:04;;;;;;;7.60;1.17;;;;;;;;;;5969255;24;20029;-58
2021/10/22 02:32:30;;;;;;;4.78;1.10;;;;;;;;;;5960647;24;20034;-55
2021/10/22 02:34:57;;;;;;;9.30;1.13;;;;;;;;;;5966215;24;20038;-57
2021/10/22 02:37:24;;;;;;;4.20;0.98;;;;;;;;;;5956690;24;20033;-57
2021/10/22 02:39:51;;;;;;;5.40;0.98;;;;;;;;;;5969696;24;20034;-55
2021/10/22 02:42:17;;;;;;;3.72;0.90;;;;;;;;;;5964752;24;20036;-58
2021/10/22 02:44:44;;;;;;;4.65;0.93;;;;;;;;;;6015102;23;20038;-56
2021/10/22 02:47:13;;;;;;;3.45;1.08;;;;;;;;;;6006067;23;20046;-57
2021/10/22 02:49:39;;;;;;;6.60;1.20;;;;;;;;;;5969546;24;20049;-56
2021/10/22 02:52:06;;;;;;;8.98;1.17;;;;;;;;;;5964969;24;20044;-57
2021/10/22 02:54:32;;;;;;;6.57;0.98;;;;;;;;;;5969447;24;20026;-55
2021/10/22 02:57:00;;;;;;;11.70;1.17;;;;;;;;;;5985134;23;20120;-57
2021/10/22 02:59:27;;;;;;;7.82;1.00;;;;;;;;;;5940533;24;20049;-56
2021/10/22 03:01:53;;;;;;;7.05;1.15;;;;;;;;;;5964163;24;20088;-56
2021/10/22 03:04:21;;;;;;;10.68;1.00;;;;;;;;;;5962123;24;20045;-57
2021/10/22 03:06:47;;;;;;;5.30;1.27;;;;;;;;;;5992379;23;20040;-54
2021/10/22 03:09:14;;;;;;;8.07;1.20;;;;;;;;;;5978903;23;20071;-56
2021/10/22 03:11:40;;;;;;;6.85;1.35;;;;;;;;;;5966081;24;20030;-58
2021/10/22 03:14:07;;;;;;;3.85;0.95;;;;;;;;;;5967669;23;20050;-55
2021/10/22 03:16:34;;;;;;;8.88;1.45;;;;;;;;;;5995068;23;20058;-57
2021/10/22 03:19:00;;;;;;;9.18;1.23;;;;;;;;;;5963084;24;20092;-57
2021/10/22 03:21:29;;;;;;;6.38;1.05;;;;;;;;;;5955406;24;20042;-55
2021/10/22 03:23:56;;;;;;;5.18;1.20;;;;;;;;;;5976872;23;20034;-59
2021/10/22 03:26:24;;;;;;;6.57;1.08;;;;;;;;;;5969273;24;20038;-57
2021/10/22 03:28:50;;;;;;;4.72;1.13;;;;;;;;;;5965530;24;20041;-58
2021/10/22 03:31:16;;;;;;;8.02;1.00;;;;;;;;;;5970023;24;20066;-58
2021/10/22 03:33:43;;;;;;;9.50;1.23;;;;;;;;;;5961707;24;20046;-53
2021/10/22 03:36:11;;;;;;;11.88;1.48;;;;;;;;;;5967832;23;20045;-56
2021/10/22 03:38:39;;;;;;;5.15;1.20;;;;;;;;;;5964179;23;20040;-58
2021/10/22 03:41:05;;;;;;;4.93;1.00;;;;;;;;;;6014739;23;20045;-58
2021/10/22 03:43:34;;;;;;;10.63;1.30;;;;;;;;;;5993694;23;20032;-57
2021/10/22 03:46:06;;;;;;;9.15;1.30;;;;;;;;;;6011862;23;20014;-58
2021/10/22 03:48:35;;;;;;;7.30;1.33;;;;;;;;;;5973928;23;20038;-57
2021/10/22 03:51:02;;;;;;;10.70;2.00;;;;;;;;;;5984854;23;20041;-58
2021/10/22 03:53:28;;;;;;;5.88;1.45;;;;;;;;;;5971615;24;20112;-56
2021/10/22 03:55:56;;;;;;;2.20;0.93;;;;;;;;;;5991305;23;20044;-54
2021/10/22 03:58:22;;;;;;;13.37;1.60;;;;;;;;;;5968595;24;20030;-57
2021/10/22 04:00:51;;;;;;;7.97;1.40;;;;;;;;;;5961640;24;20279;-56
2021/10/22 04:03:17;;;;;;;11.73;1.75;;;;;;;;;;5965898;24;20034;-57
2021/10/22 04:05:44;;;;;;;7.65;1.42;;;;;;;;;;5953215;24;20034;-57
2021/10/22 04:08:11;;;;;;;10.07;1.35;;;;;;;;;;5965507;24;20050;-58
2021/10/22 04:10:41;;;;;;;15.07;2.63;;;;;;;;;;5957881;24;20142;-57
2021/10/22 04:13:08;;;;;;;12.73;1.20;;;;;;;;;;5993472;23;20048;-57
2021/10/22 04:15:35;;;;;;;12.70;1.58;;;;;;;;;;5965846;24;20041;-55
2021/10/22 04:18:02;;;;;;;12.02;1.65;;;;;;;;;;5992905;23;20022;-57
2021/10/22 04:20:28;;;;;;;7.10;1.50;;;;;;;;;;5963425;23;20117;-55
2021/10/22 04:22:54;;;;;;;5.50;1.23;;;;;;;;;;5956750;24;20093;-54
2021/10/22 04:25:21;;;;;;;9.68;1.73;;;;;;;;;;5953047;24;20120;-55
2021/10/22 04:27:47;;;;;;;8.27;1.52;;;;;;;;;;5963665;23;20112;-57
2021/10/22 04:30:18;;;;;;;11.25;1.90;;;;;;;;;;5962615;24;20053;-58
2021/10/22 04:32:44;;;;;;;8.85;1.48;;;;;;;;;;5938698;23;20472;-58
2021/10/22 04:35:11;;;;;;;5.07;1.83;;;;;;;;;;5940772;24;20030;-58
2021/10/22 04:37:48;;;;;;;8.98;1.70;;;;;;;;;;5965605;24;20041;-57
2021/10/22 04:40:34;;;;;;;11.10;1.85;;;;;;;;;;5968809;24;20058;-56
2021/10/22 04:43:01;;;;;;;5.72;1.50;;;;;;;;;;5950767;24;20030;-57
2021/10/22 04:45:30;;;;;;;10.20;1.42;;;;;;;;;;5956082;24;20038;-55
2021/10/22 04:47:57;;;;;;;9.50;1.73;;;;;;;;;;5975596;23;20051;-56
2021/10/22 04:50:24;;;;;;;12.93;1.67;;;;;;;;;;5968504;24;20034;-56
2021/10/22 04:52:53;;;;;;;9.73;1.65;;;;;;;;;;5963900;24;20022;-55
2021/10/22 04:55:20;;;;;;;15.85;2.45;;;;;;;;;;5967882;24;20344;-56
2021/10/22 04:57:47;;;;;;;10.75;1.92;;;;;;;;;;5966227;24;20075;-54
2021/10/22 05:00:14;;;;;;;9.93;1.80;;;;;;;;;;5970551;24;20088;-52
2021/10/22 05:02:41;;;;;;;8.65;1.65;;;;;;;;;;5989559;23;20034;-58
2021/10/22 05:05:08;;;;;;;12.80;1.88;;;;;;;;;;6014536;23;20038;-59
2021/10/22 05:07:35;;;;;;;17.70;3.08;;;;;;;;;;5966117;23;20030;-57
2021/10/22 05:10:01;;;;;;;12.13;3.22;;;;;;;;;;5968237;24;20030;-55
2021/10/22 05:12:27;;;;;;;11.18;3.30;;;;;;;;;;5966312;24;20042;-58
2021/10/22 05:14:54;;;;;;;9.75;2.40;;;;;;;;;;6018657;23;20022;-54
2021/10/22 05:17:22;;;;;;;10.73;2.08;;;;;;;;;;6016768;23;20066;-55
2021/10/22 05:19:50;;;;;;;8.57;1.87;;;;;;;;;;5969316;23;20041;-53
2021/10/22 05:22:16;;;;;;;8.40;1.73;;;;;;;;;;5953487;24;20346;-57
2021/10/22 05:24:43;;;;;;;13.38;1.92;;;;;;;;;;5960112;24;20042;-56
2021/10/22 05:27:09;;;;;;;9.15;1.50;;;;;;;;;;5968481;24;20030;-55
2021/10/22 05:29:36;;;;;;;10.30;1.80;;;;;;;;;;5961527;24;20116;-55
2021/10/22 05:32:03;;;;;;;8.60;1.63;;;;;;;;;;5983885;23;20181;-57
2021/10/22 05:34:30;;;;;;;7.35;1.50;;;;;;;;;;5972321;23;20037;-56
2021/10/22 05:36:59;;;;;;;18.65;3.78;;;;;;;;;;5964776;24;20026;-54
2021/10/22 05:39:25;;;;;;;13.77;2.60;;;;;;;;;;5961663;23;20061;-52
2021/10/22 05:41:52;;;;;;;6.95;1.55;;;;;;;;;;5989006;23;20040;-56
2021/10/22 05:44:19;;;;;;;12.52;2.17;;;;;;;;;;5962457;23;20070;-53
2021/10/22 05:46:46;;;;;;;9.30;1.67;;;;;;;;;;5960732;24;20169;-57
2021/10/22 05:49:12;;;;;;;9.30;1.90;;;;;;;;;;5986059;23;20033;-54
2021/10/22 05:51:39;;;;;;;9.15;2.10;;;;;;;;;;5961055;24;20069;-57
2021/10/22 05:54:07;;;;;;;7.07;1.42;;;;;;;;;;5961319;23;20037;-57
2021/10/22 05:56:33;;;;;;;8.27;1.97;;;;;;;;;;5963688;23;20069;-57
2021/10/22 05:59:00;;;;;;;13.00;2.72;;;;;;;;;;5958767;23;20259;-55
2021/10/22 06:01:26;;;;;;;8.15;1.30;;;;;;;;;;5966682;23;20119;-53
2021/10/22 06:03:53;;;;;;;12.95;2.08;;;;;;;;;;5969961;23;20034;-57
2021/10/22 06:06:19;;;;;;;10.52;1.40;;;;;;;;;;5940335;23;20077;-56
2021/10/22 06:08:46;;;;;;;13.82;1.65;;;;;;;;;;5966244;24;20038;-55
2021/10/22 06:11:14;;;;;;;9.15;1.52;;;;;;;;;;5962104;24;20033;-53
2021/10/22 06:13:41;;;;;;;10.95;2.05;;;;;;;;;;5994171;23;20037;-53
2021/10/22 06:16:11;;;;;;;7.10;1.50;;;;;;;;;;5962251;24;20174;-52
2021/10/22 06:18:45;;;;;;;9.40;1.92;;;;;;;;;;5967889;24;20146;-52
2021/10/22 06:21:19;;;;;;;7.85;1.70;;;;;;;;;;5955739;23;20123;-56
2021/10/22 06:23:55;;;;;;;10.20;2.10;;;;;;;;;;5988984;23;20127;-54
2021/10/22 06:26:24;;;;;;;6.88;1.58;;;;;;;;;;5963568;23;20058;-55
2021/10/22 06:28:51;;;;;;;4.55;1.38;;;;;;;;;;5964534;24;20040;-53
2021/10/22 06:31:18;;;;;;;10.20;1.83;;;;;;;;;;5955638;24;20066;-53
2021/10/22 06:33:44;;;;;;;16.40;2.03;;;;;;;;;;5967930;24;20038;-57
2021/10/22 06:36:11;;;;;;;11.45;2.03;;;;;;;;;;5965440;24;20120;-56
2021/10/22 06:38:37;;;;;;;7.70;1.55;;;;;;;;;;5971980;24;20022;-53
2021/10/22 06:41:07;;;;;;;6.50;1.60;;;;;;;;;;5969847;24;20124;-57
2021/10/22 06:43:35;;;;;;;10.95;1.77;;;;;;;;;;5998302;23;20529;-55
2021/10/22 06:46:16;;;;;;;10.93;1.80;;;;;;;;;;5991911;23;20026;-56
2021/10/22 06:48:43;;;;;;;10.80;1.77;;;;;;;;;;5966359;24;20062;-56
2021/10/22 06:51:11;;;;;;;9.27;2.13;;;;;;;;;;5967017;24;20042;-53
2021/10/22 06:53:37;;;;;;;14.32;2.75;;;;;;;;;;5969506;24;20030;-57
2021/10/22 06:56:05;;;;;;;10.55;1.83;;;;;;;;;;5964964;24;20049;-55
2021/10/22 06:58:31;;;;;;;11.85;2.15;;;;;;;;;;5953751;24;20034;-54
2021/10/22 07:00:59;;;;;;;10.45;2.00;;;;;;;;;;5964934;24;20041;-57
2021/10/22 07:03:27;;;;;;;15.30;2.25;;;;;;;;;;5951815;24;20117;-53
2021/10/22 07:08:44;;;;;;;11.70;2.08;;;;;;;;;;5984382;23;20022;-55
2021/10/22 07:11:11;;;;;;;9.98;2.17;;;;;;;;;;5970651;24;20118;-55
2021/10/22 07:13:39;;;;;;;7.07;1.80;;;;;;;;;;5966570;23;20022;-56
2021/10/22 07:16:13;;;;;;;11.05;1.98;;;;;;;;;;5966390;23;20097;-56
2021/10/22 07:18:39;;;;;;;13.15;1.83;;;;;;;;;;6009230;23;20029;-57
2021/10/22 07:21:06;;;;;;;12.07;2.00;;;;;;;;;;6013869;23;20041;-57
2021/10/22 07:23:34;;;;;;;7.60;1.90;;;;;;;;;;5986146;23;20026;-53
2021/10/22 07:26:01;;;;;;;12.07;1.70;;;;;;;;;;6014747;23;20049;-56
2021/10/22 07:28:27;;;;;;;12.10;1.90;;;;;;;;;;5963514;23;20026;-55
2021/10/22 07:30:54;;;;;;;16.13;1.92;;;;;;;;;;6016943;23;20058;-57
2021/10/22 07:33:21;;;;;;;12.23;2.10;;;;;;;;;;6013310;23;20047;-55
2021/10/22 07:35:49;;;;;;;7.73;2.00;;;;;;;;;;5970562;23;20074;-54
2021/10/22 07:38:16;;;;;;;11.27;1.95;;;;;;;;;;5988214;23;20038;-55
2021/10/22 07:40:43;;;;;;;12.38;1.70;;;;;;;;;;5963039;24;20027;-54
2021/10/22 07:43:10;;;;;;;11.52;1.80;;;;;;;;;;5966057;24;20090;-55
2021/10/22 07:45:38;;;;;;;10.43;2.65;;;;;;;;;;5994834;23;20026;-55
2021/10/22 07:48:05;;;;;;;10.90;2.57;;;;;;;;;;5970547;24;20112;-57
2021/10/22 07:50:33;;;;;;;7.45;1.55;;;;;;;;;;5961524;23;20343;-56
2021/10/22 07:52:59;;;;;;;8.63;1.83;;;;;;;;;;5965648;24;20049;-53
2021/10/22 07:55:26;;;;;;;11.45;2.13;;;;;;;;;;5953019;24;20284;-50
2021/10/22 07:57:53;;;;;;;12.23;1.95;;;;;;;;;;5965587;24;20092;-54
2021/10/22 08:00:20;;;;;;;9.73;2.20;;;;;;;;;;5966548;24;20047;-56
2021/10/22 08:02:46;;;;;;;10.15;1.65;;;;;;;;;;5969256;24;20041;-56
2021/10/22 08:05:13;;;;;;;13.15;2.30;;;;;;;;;;5961369;24;20062;-55
2021/10/22 08:07:41;;;;;;;3.40;1.42;;;;;;;;;;5943667;24;20026;-53
2021/10/22 08:10:09;;;;;;;7.03;1.50;;;;;;;;;;5964198;23;20058;-54
2021/10/22 08:12:36;;;;;;;11.40;1.88;;;;;;;;;;5973949;23;20127;-56
2021/10/22 08:15:03;;;;;;;10.25;1.60;;;;;;;;;;5940053;24;20054;-56
2021/10/22 08:17:31;;;;;;;9.13;1.80;;;;;;;;;;5940976;24;20034;-57
2021/10/22 08:19:59;;;;;;;6.25;1.50;;;;;;;;;;5933958;24;20023;-56
2021/10/22 08:22:29;;;;;;;10.30;1.88;;;;;;;;;;5940818;24;20088;-57
2021/10/22 08:25:00;;;;;;;9.25;1.70;;;;;;;;;;5961489;24;20034;-58
2021/10/22 08:27:28;;;;;;;10.32;1.90;;;;;;;;;;5941732;24;20027;-58
2021/10/22 08:29:55;;;;;;;7.22;1.67;;;;;;;;;;5939714;24;20116;-53
2021/10/22 08:32:21;;;;;;;17.10;1.77;;;;;;;;;;5987384;23;20061;-57
2021/10/22 08:34:48;;;;;;;6.78;1.77;;;;;;;;;;5994048;23;20108;-57
2021/10/22 08:37:14;;;;;;;8.25;1.48;;;;;;;;;;5965612;23;20045;-57
2021/10/22 08:39:45;;;;;;;18.23;1.98;;;;;;;;;;5940610;24;20105;-54
2021/10/22 08:42:14;;;;;;;9.02;1.52;;;;;;;;;;5931690;24;20034;-57
2021/10/22 08:44:42;;;;;;;3.80;1.30;;;;;;;;;;5936228;24;20031;-57
2021/10/22 08:47:09;;;;;;;7.45;1.48;;;;;;;;;;5925332;24;20031;-58
2021/10/22 08:49:37;;;;;;;13.75;1.70;;;;;;;;;;5913480;24;20041;-55
2021/10/22 08:52:04;;;;;;;13.07;1.80;;;;;;;;;;5950049;24;20034;-58
2021/10/22 08:54:31;;;;;;;6.20;1.52;;;;;;;;;;5938826;24;20034;-56
2021/10/22 08:56:59;;;;;;;9.95;1.60;;;;;;;;;;5976170;23;20041;-58
2021/10/22 08:59:27;;;;;;;7.07;1.87;;;;;;;;;;5941214;24;20089;-56
2021/10/22 09:02:10;;;;;;;10.18;1.77;;;;;;;;;;5938025;24;20093;-55
2021/10/22 09:04:37;;;;;;;7.18;1.40;;;;;;;;;;5943339;24;20050;-56
2021/10/22 09:07:04;;;;;;;13.57;1.58;;;;;;;;;;5963422;24;20026;-56
2021/10/22 09:09:30;;;;;;;10.55;1.73;;;;;;;;;;5964045;24;20066;-56
2021/10/22 09:11:57;;;;;;;9.23;1.30;;;;;;;;;;5955971;24;20046;-55
2021/10/22 09:14:25;;;;;;;11.38;1.63;;;;;;;;;;5969452;24;20033;-56
2021/10/22 09:16:54;;;;;;;10.32;1.90;;;;;;;;;;5964663;23;20062;-58
2021/10/22 09:19:28;;;;;;;11.80;1.55;;;;;;;;;;5965019;24;20046;-56
2021/10/22 09:21:56;;;;;;;8.13;1.60;;;;;;;;;;5962640;23;20030;-55
2021/10/22 09:24:22;;;;;;;5.18;1.58;;;;;;;;;;5965893;23;20037;-57
2021/10/22 09:26:51;;;;;;;7.68;1.33;;;;;;;;;;5967042;23;20049;-51
2021/10/22 09:29:18;;;;;;;12.65;1.02;;;;;;;;;;6010096;23;20041;-57
2021/10/22 09:31:46;;;;;;;7.38;1.27;;;;;;;;;;6015815;23;20045;-56
2021/10/22 09:34:28;;;;;;;7.95;1.77;;;;;;;;;;5995574;23;20033;-57
2021/10/22 09:36:55;;;;;;;11.90;1.67;;;;;;;;;;5970594;24;20030;-56
2021/10/22 09:39:22;;;;;;;6.68;1.20;;;;;;;;;;5992164;23;20034;-55
2021/10/22 09:41:49;;;;;;;9.88;1.20;;;;;;;;;;5969237;24;20034;-58
2021/10/22 09:44:20;;;;;;;12.55;1.70;;;;;;;;;;5945886;24;20038;-57
2021/10/22 09:46:46;;;;;;;5.80;1.42;;;;;;;;;;5962346;24;20034;-54
2021/10/22 09:49:24;;;;;;;5.25;1.17;;;;;;;;;;5952873;24;20066;-57
2021/10/22 09:51:54;;;;;;;11.20;1.40;;;;;;;;;;5940204;24;20030;-55
2021/10/22 09:54:21;;;;;;;6.95;1.58;;;;;;;;;;5954797;24;20038;-57
2021/10/22 09:56:52;;;;;;;11.45;1.83;;;;;;;;;;5968106;23;20037;-52
2021/10/22 09:59:23;;;;;;;9.20;1.20;;;;;;;;;;5964071;24;20182;-54
2021/10/22 10:01:51;;;;;;;7.80;1.30;;;;;;;;;;5992753;23;20037;-54
2021/10/22 10:04:18;;;;;;;9.35;1.27;;;;;;;;;;6009560;23;20086;-57
2021/10/22 10:06:48;;;;;;;6.50;1.25;;;;;;;;;;5967835;23;20100;-56
2021/10/22 10:09:15;;;;;;;8.65;1.38;;;;;;;;;;5965662;23;20034;-57
2021/10/22 10:11:42;;;;;;;7.45;1.20;;;;;;;;;;5969989;24;20030;-57
2021/10/22 10:14:11;;;;;;;7.00;1.30;;;;;;;;;;5966784;23;20022;-55
2021/10/22 10:16:38;;;;;;;5.78;1.05;;;;;;;;;;5971062;24;20041;-54
2021/10/22 10:19:06;;;;;;;11.10;1.30;;;;;;;;;;5969133;23;20042;-56
2021/10/22 10:21:34;;;;;;;7.85;1.50;;;;;;;;;;5966648;24;20085;-56
2021/10/22 10:24:02;;;;;;;20.83;2.00;;;;;;;;;;5987978;23;20069;-54
2021/10/22 10:26:30;;;;;;;13.35;1.90;;;;;;;;;;5961484;24;20283;-56
2021/10/22 10:28:57;;;;;;;9.98;1.55;;;;;;;;;;5965982;24;20042;-57
2021/10/22 10:31:28;;;;;;;6.28;1.10;;;;;;;;;;5961269;24;20045;-52
2021/10/22 10:33:55;;;;;;;7.95;1.40;;;;;;;;;;5963774;24;20053;-52
2021/10/22 10:36:40;;;;;;;8.02;1.10;;;;;;;;;;5964307;24;20046;-54
2021/10/22 10:39:09;;;;;;;5.65;1.00;;;;;;;;;;5984011;24;20030;-56
2021/10/22 10:41:35;;;;;;;14.95;1.23;;;;;;;;;;5945716;24;20030;-52
2021/10/22 10:44:17;;;;;;;12.30;1.55;;;;;;;;;;5938930;24;20034;-51
2021/10/22 10:46:44;;;;;;;11.85;1.20;;;;;;;;;;5955168;23;20026;-52
2021/10/22 10:49:10;;;;;;;10.27;1.50;;;;;;;;;;5969332;24;20033;-54
2021/10/22 10:51:37;;;;;;;13.10;1.40;;;;;;;;;;6003310;23;20070;-52
2021/10/22 10:54:04;;;;;;;10.68;1.40;;;;;;;;;;5970686;24;20053;-50
2021/10/22 10:56:34;;;;;;;12.80;1.40;;;;;;;;;;5990028;23;20029;-53
2021/10/22 10:59:01;;;;;;;8.82;1.10;;;;;;;;;;5969268;23;20117;-56
2021/10/22 11:01:30;;;;;;;6.32;1.10;;;;;;;;;;5991138;23;20373;-53
2021/10/22 11:03:59;;;;;;;8.45;1.13;;;;;;;;;;5970504;23;20030;-55
2021/10/22 11:06:37;;;;;;;15.13;1.58;;;;;;;;;;6006095;23;20029;-57
2021/10/22 11:09:04;;;;;;;20.58;1.30;;;;;;;;;;5942772;24;20039;-55
2021/10/22 11:11:41;;;;;;;7.25;1.17;;;;;;;;;;5945726;24;20045;-53
2021/10/22 11:14:23;;;;;;;9.80;1.35;;;;;;;;;;5969940;23;20062;-54
2021/10/22 11:16:54;;;;;;;12.88;1.13;;;;;;;;;;5965952;24;20034;-55
2021/10/22 11:19:37;;;;;;;16.02;1.40;;;;;;;;;;6015780;23;20052;-55
2021/10/22 11:22:08;;;;;;;5.10;1.10;;;;;;;;;;5988978;23;20044;-55
2021/10/22 11:24:35;;;;;;;9.15;1.00;;;;;;;;;;5993296;23;20029;-57
2021/10/22 11:27:08;;;;;;;7.28;1.00;;;;;;;;;;5964277;24;20022;-55
2021/10/22 11:29:36;;;;;;;9.63;1.48;;;;;;;;;;5967552;24;20066;-57
2021/10/22 11:32:04;;;;;;;7.40;1.13;;;;;;;;;;5965949;23;20524;-52
2021/10/22 11:34:31;;;;;;;14.52;1.50;;;;;;;;;;5969040;24;20120;-53
2021/10/22 11:37:02;;;;;;;7.88;1.27;;;;;;;;;;6017255;23;20141;-55
2021/10/22 11:39:30;;;;;;;11.10;1.67;;;;;;;;;;5988404;23;20037;-53
2021/10/22 11:42:14;;;;;;;8.80;1.30;;;;;;;;;;5964774;24;20048;-54
2021/10/22 11:44:45;;;;;;;7.78;1.20;;;;;;;;;;5937874;24;20491;-54
2021/10/22 11:47:12;;;;;;;10.65;0.90;;;;;;;;;;5940832;24;20085;-57
2021/10/22 11:49:40;;;;;;;11.55;1.65;;;;;;;;;;5987164;23;20050;-58
2021/10/22 11:52:08;;;;;;;15.55;1.40;;;;;;;;;;5969317;24;20018;-55
2021/10/22 11:54:35;;;;;;;7.38;1.40;;;;;;;;;;5966149;24;20107;-51
2021/10/22 11:57:06;;;;;;;11.52;1.35;;;;;;;;;;5971024;24;20032;-57
2021/10/22 11:59:33;;;;;;;8.70;1.42;;;;;;;;;;5998372;23;20029;-57
2021/10/22 12:02:07;;;;;;;7.20;1.30;;;;;;;;;;5993887;23;20041;-56
2021/10/22 12:04:35;;;;;;;5.78;1.40;;;;;;;;;;5993541;23;20045;-57
2021/10/22 12:07:03;;;;;;;10.25;1.50;;;;;;;;;;5968483;24;20070;-57
2021/10/22 12:09:30;;;;;;;8.95;1.75;;;;;;;;;;5952645;24;20053;-57
2021/10/22 12:12:07;;;;;;;9.65;1.48;;;;;;;;;;5928294;24;20042;-55
2021/10/22 12:14:34;;;;;;;7.93;1.05;;;;;;;;;;5922989;24;20022;-52
2021/10/22 12:17:01;;;;;;;7.28;1.20;;;;;;;;;;5941452;24;20042;-57
2021/10/22 12:19:29;;;;;;;9.70;1.23;;;;;;;;;;5936855;24;20045;-57
2021/10/22 12:21:56;;;;;;;10.10;1.00;;;;;;;;;;5941985;24;20054;-57
2021/10/22 12:24:22;;;;;;;7.65;1.05;;;;;;;;;;5960826;24;20292;-57
2021/10/22 12:27:04;;;;;;;7.07;1.08;;;;;;;;;;5941730;24;20046;-57
2021/10/22 12:29:44;;;;;;;9.80;1.40;;;;;;;;;;5940766;24;20065;-55
2021/10/22 12:32:11;;;;;;;10.27;1.35;;;;;;;;;;5968981;24;20041;-57
2021/10/22 12:34:39;;;;;;;5.13;0.88;;;;;;;;;;5965234;24;20038;-57
2021/10/22 12:37:09;;;;;;;6.85;1.33;;;;;;;;;;5968352;24;20049;-57
2021/10/22 12:39:41;;;;;;;12.52;1.77;;;;;;;;;;5940961;24;20022;-57
2021/10/22 12:42:19;;;;;;;11.27;1.23;;;;;;;;;;5914644;24;20117;-56
2021/10/22 12:44:46;;;;;;;;;;;;;;;;;;5932132;24;20039;-57
2021/10/22 12:47:15;;;;;;;11.07;1.55;;;;;;;;;;5962568;24;19976;-57
2021/10/22 12:49:43;;;;;;;8.65;1.27;;;;;;;;;;5939188;24;20030;-58
2021/10/22 12:52:10;;;;;;;8.20;1.40;;;;;;;;;;5935850;24;20034;-57
2021/10/22 12:54:46;;;;;;;10.75;1.63;;;;;;;;;;5939225;24;20272;-57
2021/10/22 12:57:20;;;;;;;14.48;1.75;;;;;;;;;;5937043;24;20053;-58
2021/10/22 12:59:47;;;;;;;10.25;2.35;;;;;;;;;;5941470;24;20038;-56
2021/10/22 13:02:23;;;;;;;5.38;0.80;;;;;;;;;;5917502;24;20027;-57
2021/10/22 13:05:05;;;;;;;15.20;1.50;;;;;;;;;;5923487;24;20042;-54
2021/10/22 13:07:38;;;;;;;7.60;1.10;;;;;;;;;;5959189;24;20046;-57
2021/10/22 13:10:19;;;;;;;7.72;1.70;;;;;;;;;;5968397;24;20022;-57
2021/10/22 13:12:55;;;;;;;8.93;1.70;;;;;;;;;;5965536;24;20048;-56
2021/10/22 13:15:45;;;;;;;5.07;1.60;;;;;;;;;;5968392;24;20042;-57
2021/10/22 13:20:57;;;;;;;11.98;1.33;;;;;;;;;;6014534;23;20145;-57
2021/10/22 13:23:24;;;;;;;9.23;1.83;;;;;;;;;;6003465;23;20093;-57
2021/10/22 13:25:51;;;;;;;4.18;1.15;;;;;;;;;;5966625;24;20111;-57
2021/10/22 13:28:21;;;;;;;6.03;1.02;;;;;;;;;;5988467;23;20037;-56
2021/10/22 13:30:55;;;;;;;5.65;1.00;;;;;;;;;;5967043;23;20044;-56
2021/10/22 13:33:27;;;;;;;10.55;1.08;;;;;;;;;;5991842;23;20069;-56
2021/10/22 13:35:54;;;;;;;6.05;0.90;;;;;;;;;;5994718;23;20111;-55
2021/10/22 13:38:22;;;;;;;5.85;1.20;;;;;;;;;;5965123;24;20275;-55
2021/10/22 13:40:49;;;;;;;3.70;0.90;;;;;;;;;;5968567;24;20039;-55
2021/10/22 13:43:16;;;;;;;11.90;1.27;;;;;;;;;;5965806;23;20275;-57
2021/10/22 13:45:44;;;;;;;6.63;1.20;;;;;;;;;;5971373;24;20045;-56
2021/10/22 13:48:10;;;;;;;8.15;1.60;;;;;;;;;;6015146;23;20333;-56
2021/10/22 13:50:37;;;;;;;3.45;0.68;;;;;;;;;;6017540;23;20048;-56
2021/10/22 13:53:04;;;;;;;4.72;0.80;;;;;;;;;;5991230;23;20062;-55
2021/10/22 13:55:33;;;;;;;2.95;1.25;;;;;;;;;;5969396;24;20048;-56
2021/10/22 13:58:00;;;;;;;2.38;0.68;;;;;;;;;;5967254;24;20034;-56
2021/10/22 14:00:26;;;;;;;4.45;0.90;;;;;;;;;;5969911;24;20033;-57
2021/10/22 14:02:53;;;;;;;3.10;0.70;;;;;;;;;;5994536;23;20045;-56
2021/10/22 14:05:21;;;;;;;6.20;0.70;;;;;;;;;;5955568;24;20042;-57
2021/10/22 14:07:47;;;;;;;3.42;0.55;;;;;;;;;;5967743;24;20034;-57
2021/10/22 14:10:14;;;;;;;4.57;0.75;;;;;;;;;;5965310;23;20046;-57
2021/10/22 14:12:43;;;;;;;4.97;0.85;;;;;;;;;;5941492;24;20038;-57
2021/10/22 14:15:24;;;;;;;8.50;1.05;;;;;;;;;;5915653;24;20105;-57
2021/10/22 14:29:05;;;;;;;3.67;0.88;;;;;;;;;;5936664;23;20042;-57
2021/10/22 14:31:34;;;;;;;4.32;1.08;;;;;;;;;;5961621;24;20034;-57
2021/10/22 14:34:01;;;;;;;3.08;0.70;;;;;;;;;;5963203;24;20046;-54
2021/10/22 14:36:27;;;;;;;4.25;0.75;;;;;;;;;;5939150;24;20042;-56
2021/10/22 14:38:54;;;;;;;8.55;0.80;;;;;;;;;;5941032;24;20113;-56
2021/10/22 14:41:21;;;;;;;4.15;0.60;;;;;;;;;;5930672;24;20042;-56
2021/10/22 14:43:49;;;;;;;2.60;0.70;;;;;;;;;;5966313;24;20062;-56
2021/10/22 14:46:26;;;;;;;7.20;1.08;;;;;;;;;;5961159;24;20059;-57
2021/10/22 14:49:00;;;;;;;2.45;0.85;;;;;;;;;;5939433;24;20050;-56
2021/10/22 14:51:39;;;;;;;6.13;1.02;;;;;;;;;;5938162;24;20069;-55
2021/10/22 14:54:08;;;;;;;3.72;0.80;;;;;;;;;;5959109;24;20058;-56
2021/10/22 14:56:34;;;;;;;2.78;0.60;;;;;;;;;;5937179;24;20034;-57
2021/10/22 14:59:08;;;;;;;6.18;1.15;;;;;;;;;;5940744;24;20042;-57
2021/10/22 15:01:36;;;;;;;6.57;1.55;;;;;;;;;;5939044;24;20053;-57